Time;durP1;ratioP1;P1;durP2;ratioP2;P2;SDS_P1;SDS_P2;PMS_P1;PMS_P2;Temp;Humidity;BMP_temperature;BMP_pressure;BME280_temperature;BME280_humidity;BME280_pressure;Samples;Min_cycle;Max_cycle;Signal;HPM_P1;HPM_P2
2023/04/03 00:04:58;;;;;;;;;;;;;;;1.92;100.00;102931.81;10332504;28;19926;-68
2023/04/03 00:10:00;;;;;;;;;;;;;;;2.03;100.00;102940.56;10333310;28;19930;-68
2023/04/03 00:15:03;;;;;;;;;;;;;;;2.27;100.00;102940.00;10334927;28;20385;-68
2023/04/03 00:20:05;;;;;;;;;;;;;;;1.97;100.00;102946.53;10322690;28;20405;-69
2023/04/03 00:25:08;;;;;;;;;;;;;;;1.96;100.00;102942.19;10332541;28;19941;-69
2023/04/03 00:30:11;;;;;;;;;;;;;;;1.96;100.00;102959.41;10300018;28;20301;-68
2023/04/03 00:35:15;;;;;;;;;;;;;;;1.95;100.00;102952.50;10300513;28;19930;-68
2023/04/03 00:40:17;;;;;;;;;;;;;;;1.86;100.00;102951.53;10322455;28;19925;-68
2023/04/03 00:45:20;;;;;;;;;;;;;;;1.72;100.00;102960.81;10322338;28;19980;-69
2023/04/03 00:50:22;;;;;;;;;;;;;;;1.74;100.00;102966.88;10338830;28;19933;-69
2023/04/03 00:55:24;;;;;;;;;;;;;;;1.64;100.00;102957.25;10339978;28;19972;-69
2023/04/03 01:00:27;;;;;;;;;;;;;;;1.57;100.00;102961.47;10338604;28;19926;-69
2023/04/03 01:05:29;;;;;;;;;;;;;;;1.70;100.00;102962.53;10320098;28;20340;-69
2023/04/03 01:10:31;;;;;;;;;;;;;;;1.41;100.00;102965.53;10321954;28;19925;-69
2023/04/03 01:15:34;;;;;;;;;;;;;;;1.28;100.00;102974.78;10337796;28;19925;-69
2023/04/03 01:20:43;;;;;;;;;;;;;;;1.55;100.00;102975.22;10337666;28;20377;-69
2023/04/03 01:25:52;;;;;;;;;;;;;;;1.29;100.00;102967.91;10335265;28;19930;-69
2023/04/03 01:31:02;;;;;;;;;;;;;;;1.16;100.00;102974.59;10338631;28;19972;-69
2023/04/03 01:36:05;;;;;;;;;;;;;;;1.12;100.00;102985.69;10336952;28;19926;-69
2023/04/03 01:41:07;;;;;;;;;;;;;;;1.10;100.00;102983.09;10320327;28;20012;-69
2023/04/03 01:46:09;;;;;;;;;;;;;;;1.45;100.00;102984.53;10337239;28;20304;-70
2023/04/03 01:51:12;;;;;;;;;;;;;;;1.09;100.00;102980.47;10336615;28;20407;-70
2023/04/03 01:56:14;;;;;;;;;;;;;;;1.17;100.00;102983.19;10319715;28;19972;-70
2023/04/03 02:01:16;;;;;;;;;;;;;;;1.08;100.00;102983.91;10336991;28;19926;-70
2023/04/03 02:06:19;;;;;;;;;;;;;;;1.25;100.00;102990.22;10318042;28;20293;-69
2023/04/03 02:11:21;;;;;;;;;;;;;;;1.13;100.00;102990.03;10296935;28;19982;-70
2023/04/03 02:16:23;;;;;;;;;;;;;;;0.96;100.00;102994.00;10296556;28;19930;-70
2023/04/03 02:21:25;;;;;;;;;;;;;;;1.21;100.00;102996.19;10339221;28;19926;-70
2023/04/03 02:26:27;;;;;;;;;;;;;;;0.84;100.00;102992.06;10355677;28;19932;-70
2023/04/03 02:31:30;;;;;;;;;;;;;;;0.86;100.00;103005.88;10343605;22;19972;-68
2023/04/03 02:36:32;;;;;;;;;;;;;;;0.86;100.00;103011.03;10335260;28;19961;-68
2023/04/03 02:41:35;;;;;;;;;;;;;;;0.80;100.00;102998.88;10335302;28;19984;-68
2023/04/03 02:46:37;;;;;;;;;;;;;;;0.97;100.00;103011.22;10334286;28;20269;-69
2023/04/03 02:51:39;;;;;;;;;;;;;;;0.99;100.00;103005.25;10334222;28;19933;-69
2023/04/03 02:56:42;;;;;;;;;;;;;;;1.09;100.00;103004.59;10334840;28;19930;-69
2023/04/03 03:01:44;;;;;;;;;;;;;;;0.92;100.00;103006.88;10318107;28;19930;-69
2023/04/03 03:06:46;;;;;;;;;;;;;;;0.95;100.00;103000.03;10334349;28;19926;-69
2023/04/03 03:11:48;;;;;;;;;;;;;;;0.92;100.00;103005.97;10334902;28;19980;-69
2023/04/03 03:16:51;;;;;;;;;;;;;;;0.59;100.00;103017.41;10334305;28;19996;-68
2023/04/03 03:21:53;;;;;;;;;;;;;;;0.58;100.00;103017.38;10334036;28;19989;-69
2023/04/03 03:26:55;;;;;;;;;;;;;;;0.47;100.00;103025.78;10333200;28;19925;-69
2023/04/03 03:31:57;;;;;;;;;;;;;;;0.58;100.00;103020.81;10332825;28;19926;-69
2023/04/03 03:37:00;;;;;;;;;;;;;;;0.84;100.00;103025.59;10333976;28;19930;-68
2023/04/03 03:42:02;;;;;;;;;;;;;;;0.55;100.00;103029.38;10333693;28;19927;-68
2023/04/03 03:47:05;;;;;;;;;;;;;;;0.37;100.00;103036.72;10333519;28;19930;-68
2023/04/03 03:52:10;;;;;;;;;;;;;;;0.60;100.00;103036.31;10337745;28;19933;-67
2023/04/03 03:57:12;;;;;;;;;;;;;;;0.46;100.00;103036.91;10324291;28;19925;-69
2023/04/03 04:02:14;;;;;;;;;;;;;;;0.54;100.00;103045.66;10341381;28;20274;-68
2023/04/03 04:07:17;;;;;;;;;;;;;;;0.69;100.00;103039.94;10323073;28;19925;-68
2023/04/03 04:12:19;;;;;;;;;;;;;;;0.58;100.00;103046.59;10341768;28;19932;-68
2023/04/03 04:17:21;;;;;;;;;;;;;;;0.47;100.00;103051.53;10341462;28;19926;-68
2023/04/03 04:22:24;;;;;;;;;;;;;;;0.33;100.00;103058.09;10339969;28;19930;-68
2023/04/03 04:27:26;;;;;;;;;;;;;;;0.38;100.00;103046.19;10339651;28;19925;-68
2023/04/03 04:32:29;;;;;;;;;;;;;;;0.31;100.00;103054.63;10340253;28;19926;-68
2023/04/03 04:37:31;;;;;;;;;;;;;;;0.16;100.00;103055.16;10322909;28;20372;-68
2023/04/03 04:42:33;;;;;;;;;;;;;;;0.14;100.00;103052.53;10339173;28;20270;-68
2023/04/03 04:47:35;;;;;;;;;;;;;;;0.34;100.00;103062.44;10338807;28;19933;-67
2023/04/03 04:52:38;;;;;;;;;;;;;;;0.16;100.00;103060.31;10322219;28;19925;-68
2023/04/03 04:57:40;;;;;;;;;;;;;;;0.07;100.00;103066.13;10321367;28;19926;-68
2023/04/03 05:02:42;;;;;;;;;;;;;;;0.15;100.00;103072.34;10339102;28;20005;-68
2023/04/03 05:07:45;;;;;;;;;;;;;;;0.33;100.00;103082.16;10321566;28;19929;-68
2023/04/03 05:12:47;;;;;;;;;;;;;;;0.11;100.00;103092.81;10338040;28;20270;-68
2023/04/03 05:17:50;;;;;;;;;;;;;;;0.23;100.00;103087.94;10337998;28;19925;-69
2023/04/03 05:22:52;;;;;;;;;;;;;;;0.07;100.00;103088.44;10338311;28;19930;-68
2023/04/03 05:27:54;;;;;;;;;;;;;;;0.13;100.00;103086.88;10338074;28;19929;-68
2023/04/03 05:32:58;;;;;;;;;;;;;;;0.24;100.00;103096.56;10320585;28;19925;-68
2023/04/03 05:38:00;;;;;;;;;;;;;;;0.22;100.00;103095.63;10337822;28;20020;-68
2023/04/03 05:43:03;;;;;;;;;;;;;;;0.42;100.00;103096.97;10338261;28;19926;-68
2023/04/03 05:48:05;;;;;;;;;;;;;;;0.59;100.00;103102.50;10319974;28;19930;-68
2023/04/03 05:53:07;;;;;;;;;;;;;;;0.78;100.00;103106.31;10337075;28;19926;-68
2023/04/03 05:58:10;;;;;;;;;;;;;;;0.70;100.00;103113.88;10331623;28;19926;-68
2023/04/03 06:03:12;;;;;;;;;;;;;;;0.87;100.00;103116.78;10319664;28;19965;-67
2023/04/03 06:08:15;;;;;;;;;;;;;;;0.86;100.00;103119.38;10335743;28;19937;-68
2023/04/03 06:13:17;;;;;;;;;;;;;;;1.11;100.00;103121.59;10335348;28;19926;-68
2023/04/03 06:18:19;;;;;;;;;;;;;;;1.13;100.00;103120.72;10336169;28;19929;-67
2023/04/03 06:23:21;;;;;;;;;;;;;;;1.34;100.00;103118.56;10335862;28;19926;-68
2023/04/03 06:28:23;;;;;;;;;;;;;;;1.30;100.00;103119.34;10303309;28;19980;-68
2023/04/03 06:33:27;;;;;;;;;;;;;;;1.57;100.00;103121.56;10306700;28;19933;-67
2023/04/03 06:38:29;;;;;;;;;;;;;;;1.76;100.00;103127.88;10335966;28;19926;-68
2023/04/03 06:43:32;;;;;;;;;;;;;;;1.78;100.00;103130.50;10336029;28;19929;-68
2023/04/03 06:48:35;;;;;;;;;;;;;;;2.03;100.00;103131.78;10334196;28;19926;-68
2023/04/03 06:53:38;;;;;;;;;;;;;;;1.93;100.00;103135.06;10334112;28;19980;-68
2023/04/03 06:58:40;;;;;;;;;;;;;;;2.23;96.64;103134.66;10335466;28;19925;-68
2023/04/03 07:03:43;;;;;;;;;;;;;;;2.43;96.56;103140.13;10317594;28;19988;-68
2023/04/03 07:08:45;;;;;;;;;;;;;;;2.57;94.80;103143.78;10316218;28;19937;-67
2023/04/03 07:13:48;;;;;;;;;;;;;;;3.15;92.78;103146.19;10303521;28;19989;-68
2023/04/03 07:18:50;;;;;;;;;;;;;;;3.20;91.09;103153.16;10310771;28;19930;-68
2023/04/03 07:23:52;;;;;;;;;;;;;;;3.50;88.56;103153.47;10327398;28;19953;-69
2023/04/03 07:28:55;;;;;;;;;;;;;;;4.17;86.27;103165.28;10327774;28;19933;-69
2023/04/03 07:33:57;;;;;;;;;;;;;;;4.38;84.02;103168.88;10332846;28;19926;-68
2023/04/03 07:38:59;;;;;;;;;;;;;;;4.59;81.65;103173.31;10310531;28;20301;-69
2023/04/03 07:44:02;;;;;;;;;;;;;;;4.63;80.30;103173.34;10323550;28;20373;-67
2023/04/03 07:49:04;;;;;;;;;;;;;;;4.99;76.88;103177.00;10332992;28;19980;-67
2023/04/03 07:54:06;;;;;;;;;;;;;;;5.43;76.74;103175.41;10316547;28;19926;-67
2023/04/03 07:59:10;;;;;;;;;;;;;;;5.72;73.91;103179.78;10293959;28;20328;-66
2023/04/03 08:04:12;;;;;;;;;;;;;;;6.27;73.76;103171.13;10328564;28;20263;-66
2023/04/03 08:09:15;;;;;;;;;;;;;;;6.28;71.75;103172.88;10314642;28;19957;-67
2023/04/03 08:14:18;;;;;;;;;;;;;;;6.68;72.35;103175.38;10311190;28;19936;-67
2023/04/03 08:19:20;;;;;;;;;;;;;;;7.04;70.27;103179.59;10332909;28;19932;-67
2023/04/03 08:24:27;;;;;;;;;;;;;;;7.25;68.93;103178.63;10333183;28;20293;-67
2023/04/03 08:29:30;;;;;;;;;;;;;;;7.89;66.75;103181.66;10332741;28;20377;-67
2023/04/03 08:34:34;;;;;;;;;;;;;;;7.94;65.35;103189.47;10332913;28;19933;-67
2023/04/03 08:39:37;;;;;;;;;;;;;;;7.56;60.58;103194.06;10323390;28;19930;-66
2023/04/03 08:44:39;;;;;;;;;;;;;;;8.73;63.44;103193.06;10339968;28;19996;-67
2023/04/03 08:49:50;;;;;;;;;;;;;;;9.43;60.54;103186.94;10339477;28;19926;-67
2023/04/03 08:54:57;;;;;;;;;;;;;;;9.86;60.62;103184.53;10322742;28;20358;-67
2023/04/03 09:00:15;;;;;;;;;;;;;;;9.39;56.15;103193.97;10340015;28;19926;-67
2023/04/03 09:05:18;;;;;;;;;;;;;;;10.01;55.28;103179.94;10322822;28;19925;-67
2023/04/03 09:10:24;;;;;;;;;;;;;;;10.51;52.55;103186.06;10322213;28;19981;-67
2023/04/03 09:15:26;;;;;;;;;;;;;;;9.76;49.64;103182.09;10322226;28;19926;-67
2023/04/03 09:20:40;;;;;;;;;;;;;;;10.53;50.75;103186.91;10338735;28;19926;-68
2023/04/03 09:25:42;;;;;;;;;;;;;;;11.82;49.04;103177.97;10338370;28;20369;-68
2023/04/03 09:30:44;;;;;;;;;;;;;;;11.56;47.16;103177.75;10320748;28;19925;-68
2023/04/03 09:35:46;;;;;;;;;;;;;;;11.47;43.39;103178.84;10321350;28;19926;-68
2023/04/03 09:40:51;;;;;;;;;;;;;;;12.07;43.21;103177.41;10337767;28;20289;-68
2023/04/03 09:45:53;;;;;;;;;;;;;;;13.34;46.24;103185.22;10338119;28;19926;-68
2023/04/03 09:51:02;;;;;;;;;;;;;;;12.59;41.81;103181.25;10337394;28;19929;-69
2023/04/03 09:56:25;;;;;;;;;;;;;;;13.07;42.23;103171.97;10337821;28;19926;-68
2023/04/03 10:01:30;;;;;;;;;;;;;;;12.46;41.82;103158.84;10337003;28;19930;-68
2023/04/03 10:06:35;;;;;;;;;;;;;;;14.18;44.30;103163.16;10337737;28;19930;-69
2023/04/03 10:11:37;;;;;;;;;;;;;;;13.54;41.46;103151.25;10320054;28;19933;-68
2023/04/03 10:16:42;;;;;;;;;;;;;;;12.60;36.28;103161.09;10319215;28;19926;-69
2023/04/03 10:21:46;;;;;;;;;;;;;;;14.09;38.95;103145.91;10317227;28;19932;-67
2023/04/03 10:26:58;;;;;;;;;;;;;;;14.64;39.65;103145.72;10306224;28;20365;-67
2023/04/03 10:32:10;;;;;;;;;;;;;;;14.92;38.97;103131.47;10323970;28;19925;-67
2023/04/03 10:37:12;;;;;;;;;;;;;;;13.97;39.41;103122.63;10334548;28;19926;-67
2023/04/03 10:42:33;;;;;;;;;;;;;;;15.16;38.80;103127.03;10325548;28;19992;-67
2023/04/03 10:47:54;;;;;;;;;;;;;;;16.05;37.46;103118.97;10313031;28;19933;-67
2023/04/03 10:53:17;;;;;;;;;;;;;;;15.67;36.89;103101.19;10299787;28;19934;-68
2023/04/03 10:58:32;;;;;;;;;;;;;;;16.86;38.14;103114.44;10320875;28;19929;-68
2023/04/03 11:03:41;;;;;;;;;;;;;;;15.66;37.37;103096.81;10317012;28;20424;-68
2023/04/03 11:08:46;;;;;;;;;;;;;;;15.15;37.76;103080.44;10318266;28;19926;-68
2023/04/03 11:14:07;;;;;;;;;;;;;;;17.63;34.67;103082.44;10334655;28;19926;-68
2023/04/03 11:19:12;;;;;;;;;;;;;;;17.82;36.04;103069.09;10334162;28;19973;-68
2023/04/03 11:24:22;;;;;;;;;;;;;;;17.69;34.94;103067.16;10334212;28;20329;-68
2023/04/03 11:29:45;;;;;;;;;;;;;;;15.62;33.22;103076.75;10332910;28;19972;-69
2023/04/03 11:34:49;;;;;;;;;;;;;;;18.72;34.81;103059.00;10333938;28;19926;-68
2023/04/03 11:40:00;;;;;;;;;;;;;;;18.27;33.85;103063.25;10316036;28;19926;-69
2023/04/03 11:45:21;;;;;;;;;;;;;;;17.05;35.41;103062.38;10331431;28;19928;-68
2023/04/03 11:50:39;;;;;;;;;;;;;;;19.21;34.42;103063.31;10331315;28;20384;-69
2023/04/03 11:55:45;;;;;;;;;;;;;;;17.22;33.61;103052.75;10318260;28;19926;-69
2023/04/03 12:00:52;;;;;;;;;;;;;;;18.39;35.08;103046.66;10322922;28;20270;-68
2023/04/03 12:06:04;;;;;;;;;;;;;;;19.03;34.03;103038.69;10366366;28;19925;-68
2023/04/03 12:11:09;;;;;;;;;;;;;;;19.85;33.46;103037.38;10376505;28;19960;-69
2023/04/03 12:16:31;;;;;;;;;;;;;;;18.60;35.28;103034.00;10382268;28;19925;-68
2023/04/03 12:21:36;;;;;;;;;;;;;;;19.23;33.66;103024.25;10324829;28;20028;-68
2023/04/03 12:26:42;;;;;;;;;;;;;;;20.36;31.78;103020.94;10340525;28;19925;-68
2023/04/03 12:32:04;;;;;;;;;;;;;;;20.03;31.50;103009.66;10340366;28;19933;-69
2023/04/03 12:37:17;;;;;;;;;;;;;;;20.03;31.53;103022.94;10323129;28;20381;-69
2023/04/03 12:42:35;;;;;;;;;;;;;;;19.88;32.63;103012.41;10323012;28;19934;-69
2023/04/03 12:47:39;;;;;;;;;;;;;;;19.68;30.88;103011.81;10340582;28;19980;-68
2023/04/03 12:52:42;;;;;;;;;;;;;;;19.18;33.70;103013.03;10340317;28;19932;-69
2023/04/03 12:57:45;;;;;;;;;;;;;;;19.47;31.79;103001.53;10322998;28;19930;-69
2023/04/03 13:02:47;;;;;;;;;;;;;;;19.89;32.14;102995.50;10322789;28;19925;-69
2023/04/03 13:07:56;;;;;;;;;;;;;;;19.37;32.31;102992.41;10339815;28;19933;-68
2023/04/03 13:13:07;;;;;;;;;;;;;;;20.81;30.13;102984.28;10322460;28;19926;-68
2023/04/03 13:18:27;;;;;;;;;;;;;;;21.52;31.22;102974.22;10321680;28;20394;-68
2023/04/03 13:23:31;;;;;;;;;;;;;;;19.77;31.82;102978.50;10338778;28;19926;-69
2023/04/03 13:28:33;;;;;;;;;;;;;;;19.47;31.43;102966.16;10322000;28;19929;-69
2023/04/03 13:33:39;;;;;;;;;;;;;;;19.06;30.03;102973.00;10338243;28;20005;-68
2023/04/03 13:38:42;;;;;;;;;;;;;;;20.16;30.64;102950.38;10321897;28;19957;-69
2023/04/03 13:43:44;;;;;;;;;;;;;;;20.16;32.41;102955.72;10321015;28;20284;-69
2023/04/03 13:48:48;;;;;;;;;;;;;;;19.28;30.33;102956.66;10337561;28;20349;-69
2023/04/03 13:53:57;;;;;;;;;;;;;;;20.53;31.04;102948.00;10320807;28;19973;-68
2023/04/03 13:59:01;;;;;;;;;;;;;;;21.97;31.52;102934.56;10320657;28;19926;-69
2023/04/03 14:04:11;;;;;;;;;;;;;;;22.08;29.81;102929.28;10320415;28;19926;-69
2023/04/03 14:09:14;;;;;;;;;;;;;;;18.14;31.61;102938.44;10319709;28;19949;-69
2023/04/03 14:14:17;;;;;;;;;;;;;;;20.05;30.97;102916.50;10319673;28;19936;-68
2023/04/03 14:19:22;;;;;;;;;;;;;;;20.59;30.27;102923.63;10319831;28;19933;-69
2023/04/03 14:24:24;;;;;;;;;;;;;;;20.72;31.12;102931.69;10319583;28;19926;-69
2023/04/03 14:29:26;;;;;;;;;;;;;;;21.21;30.50;102935.47;10336552;28;19932;-69
2023/04/03 14:34:29;;;;;;;;;;;;;;;20.01;31.57;102918.50;10335855;28;19929;-69
2023/04/03 14:39:31;;;;;;;;;;;;;;;19.88;32.46;102916.72;10318378;28;20369;-68
2023/04/03 14:44:33;;;;;;;;;;;;;;;20.96;31.34;102905.19;10342948;23;19926;-69
2023/04/03 14:49:35;;;;;;;;;;;;;;;19.14;31.43;102916.78;10318660;28;20320;-69
2023/04/03 14:54:37;;;;;;;;;;;;;;;20.95;30.86;102901.69;10335068;28;20408;-69
2023/04/03 14:59:40;;;;;;;;;;;;;;;19.41;31.71;102911.59;10335027;28;20269;-69
2023/04/03 15:04:42;;;;;;;;;;;;;;;20.31;31.24;102892.66;10335478;28;19980;-69
2023/04/03 15:09:44;;;;;;;;;;;;;;;20.90;32.67;102900.31;10334808;28;20302;-70
2023/04/03 15:14:47;;;;;;;;;;;;;;;19.74;31.58;102889.19;10334529;28;20361;-70
2023/04/03 15:19:58;;;;;;;;;;;;;;;20.28;32.19;102890.22;10335179;28;19926;-70
2023/04/03 15:25:00;;;;;;;;;;;;;;;19.70;31.46;102890.31;10308301;28;19926;-70
2023/04/03 15:30:07;;;;;;;;;;;;;;;19.17;32.03;102898.00;10292963;28;19933;-69
2023/04/03 15:35:09;;;;;;;;;;;;;;;18.18;31.65;102901.06;10326263;28;19926;-69
2023/04/03 15:40:11;;;;;;;;;;;;;;;18.73;32.62;102893.53;10307948;28;19926;-69
2023/04/03 15:45:13;;;;;;;;;;;;;;;17.15;35.32;102896.03;10294268;28;19931;-69
2023/04/03 15:50:16;;;;;;;;;;;;;;;17.43;33.22;102897.22;10304622;28;19930;-69
2023/04/03 15:55:18;;;;;;;;;;;;;;;17.15;35.47;102911.06;10284965;28;19930;-69
2023/04/03 16:00:21;;;;;;;;;;;;;;;17.32;34.73;102908.38;10304405;28;20329;-69
2023/04/03 16:05:23;;;;;;;;;;;;;;;16.42;34.59;102897.91;10302005;28;19926;-69
2023/04/03 16:10:26;;;;;;;;;;;;;;;16.89;36.39;102905.28;10301679;28;19957;-69
2023/04/03 16:15:28;;;;;;;;;;;;;;;17.04;36.00;102907.16;10285016;28;19930;-69
2023/04/03 16:20:31;;;;;;;;;;;;;;;15.84;37.31;102904.19;10339692;28;19969;-69
2023/04/03 16:25:33;;;;;;;;;;;;;;;16.37;36.53;102902.56;10308289;28;19926;-69
2023/04/03 16:30:35;;;;;;;;;;;;;;;14.97;38.92;102900.03;10340675;28;19957;-69
2023/04/03 16:35:37;;;;;;;;;;;;;;;15.01;38.90;102900.75;10335424;28;20076;-69
2023/04/03 16:40:40;;;;;;;;;;;;;;;15.03;39.08;102899.78;10341043;28;19976;-69
2023/04/03 16:45:42;;;;;;;;;;;;;;;14.47;38.40;102906.47;10321963;28;19926;-69
2023/04/03 16:50:48;;;;;;;;;;;;;;;13.39;40.15;102899.16;10339843;28;19926;-69
2023/04/03 16:55:51;;;;;;;;;;;;;;;14.12;38.54;102900.81;10339013;28;20340;-69
2023/04/03 17:00:53;;;;;;;;;;;;;;;14.45;38.23;102903.00;10339642;28;19980;-69
2023/04/03 17:05:56;;;;;;;;;;;;;;;14.30;39.20;102906.28;10340074;28;20004;-69
2023/04/03 17:10:58;;;;;;;;;;;;;;;15.02;39.06;102907.75;10321956;28;19936;-69
2023/04/03 17:16:02;;;;;;;;;;;;;;;16.35;37.12;102900.00;10339581;28;19926;-69
2023/04/03 17:21:05;;;;;;;;;;;;;;;13.50;38.87;102922.44;10322417;28;19956;-69
2023/04/03 17:26:09;;;;;;;;;;;;;;;10.95;44.45;102918.72;10338514;28;20355;-69
2023/04/03 17:31:11;;;;;;;;;;;;;;;10.01;48.63;102907.78;10338953;28;19957;-69
2023/04/03 17:36:13;;;;;;;;;;;;;;;9.53;49.19;102915.72;10320969;28;19932;-68
2023/04/03 17:41:15;;;;;;;;;;;;;;;9.30;49.79;102923.09;10338582;28;19934;-68
2023/04/03 17:46:18;;;;;;;;;;;;;;;9.18;49.44;102918.09;10338241;28;19948;-68
2023/04/03 17:51:21;;;;;;;;;;;;;;;8.57;51.03;102916.47;10338140;28;19925;-69
2023/04/03 17:56:25;;;;;;;;;;;;;;;8.32;51.97;102924.63;10320773;28;19925;-69
2023/04/03 18:01:29;;;;;;;;;;;;;;;8.50;52.31;102924.41;10316490;28;19936;-69
2023/04/03 18:06:47;;;;;;;;;;;;;;;8.05;53.22;102925.84;10301335;28;19933;-69
2023/04/03 18:11:49;;;;;;;;;;;;;;;8.02;53.51;102932.00;10311773;28;19925;-69
2023/04/03 18:16:52;;;;;;;;;;;;;;;7.63;54.72;102924.63;10336102;28;19930;-68
2023/04/03 18:21:55;;;;;;;;;;;;;;;7.34;55.77;102934.47;10311055;28;20329;-68
2023/04/03 18:26:58;;;;;;;;;;;;;;;7.21;57.17;102929.38;10279550;28;19926;-69
2023/04/03 18:32:02;;;;;;;;;;;;;;;6.99;58.70;102939.13;10279257;28;19933;-68
2023/04/03 18:37:05;;;;;;;;;;;;;;;6.53;60.17;102931.63;10295680;28;19932;-68
2023/04/03 18:42:08;;;;;;;;;;;;;;;6.28;60.82;102941.31;10278940;28;19926;-68
2023/04/03 18:47:11;;;;;;;;;;;;;;;5.91;61.39;102939.69;10278191;28;19926;-68
2023/04/03 18:52:13;;;;;;;;;;;;;;;5.95;62.14;102945.75;10295647;28;19952;-68
2023/04/03 18:57:15;;;;;;;;;;;;;;;5.51;62.37;102945.00;10295462;28;20393;-68
2023/04/03 19:02:20;;;;;;;;;;;;;;;5.23;63.92;102954.59;10277689;28;20122;-68
2023/04/03 19:07:23;;;;;;;;;;;;;;;5.18;64.30;102954.59;10294223;28;19926;-68
2023/04/03 19:12:25;;;;;;;;;;;;;;;4.95;65.30;102951.13;10295066;28;19926;-68
2023/04/03 19:17:27;;;;;;;;;;;;;;;4.80;65.38;102949.38;10294344;28;19926;-68
2023/04/03 19:22:30;;;;;;;;;;;;;;;4.61;67.58;102951.06;10294427;28;19957;-68
2023/04/03 19:27:33;;;;;;;;;;;;;;;4.43;69.01;102952.75;10294716;28;19926;-68
2023/04/03 19:32:35;;;;;;;;;;;;;;;4.16;69.48;102952.66;10294606;28;19933;-68
2023/04/03 19:37:37;;;;;;;;;;;;;;;4.12;69.48;102945.72;10293984;28;20058;-68
2023/04/03 19:42:41;;;;;;;;;;;;;;;3.95;70.87;102951.72;10332395;28;19926;-67
2023/04/03 19:47:44;;;;;;;;;;;;;;;4.09;70.11;102949.19;10333813;28;19980;-67
2023/04/03 19:52:46;;;;;;;;;;;;;;;3.63;71.99;102956.69;10333302;28;19969;-68
2023/04/03 19:57:49;;;;;;;;;;;;;;;3.70;72.54;102955.91;10332922;28;20336;-68
2023/04/03 20:02:51;;;;;;;;;;;;;;;3.54;73.11;102960.09;10333333;28;19980;-68
2023/04/03 20:07:54;;;;;;;;;;;;;;;3.52;73.06;102957.50;10333429;28;19929;-68
2023/04/03 20:12:57;;;;;;;;;;;;;;;3.25;74.71;102953.00;10333256;28;20286;-68
2023/04/03 20:18:00;;;;;;;;;;;;;;;3.25;75.40;102954.72;10333077;28;20320;-68
2023/04/03 20:23:02;;;;;;;;;;;;;;;3.27;74.63;102953.88;10333909;28;19929;-68
2023/04/03 20:28:04;;;;;;;;;;;;;;;3.02;75.68;102957.97;10331425;28;20285;-68
2023/04/03 20:33:07;;;;;;;;;;;;;;;3.02;77.12;102957.13;10336635;28;19957;-68
2023/04/03 20:38:09;;;;;;;;;;;;;;;2.93;78.05;102956.19;10321786;28;19933;-68
2023/04/03 20:43:11;;;;;;;;;;;;;;;2.62;78.27;102955.00;10283455;28;19933;-68
2023/04/03 20:48:14;;;;;;;;;;;;;;;2.65;79.53;102955.03;10292148;28;19933;-68
2023/04/03 20:53:17;;;;;;;;;;;;;;;2.65;78.92;102957.63;10339759;28;19926;-68
2023/04/03 20:58:20;;;;;;;;;;;;;;;2.75;79.26;102959.47;10339260;28;20373;-68
2023/04/03 21:03:23;;;;;;;;;;;;;;;2.71;79.20;102959.44;10325625;28;19930;-68
2023/04/03 21:08:45;;;;;;;;;;;;;;;2.51;80.79;102959.22;10323385;28;20406;-68
2023/04/03 21:14:06;;;;;;;;;;;;;;;2.50;81.55;102960.91;10339463;28;20361;-68
2023/04/03 21:19:09;;;;;;;;;;;;;;;2.50;82.38;102966.09;10329481;28;20095;-68
2023/04/03 21:24:12;;;;;;;;;;;;;;;2.46;80.98;102964.34;10303452;28;19926;-68
2023/04/03 21:29:14;;;;;;;;;;;;;;;2.34;81.72;102952.13;10321290;28;19930;-68
2023/04/03 21:34:17;;;;;;;;;;;;;;;2.40;81.71;102943.56;10305146;28;19925;-68
2023/04/03 21:39:20;;;;;;;;;;;;;;;2.12;82.74;102939.78;10319873;28;19930;-68
2023/04/03 21:44:23;;;;;;;;;;;;;;;2.54;80.12;102921.31;10320700;28;19981;-68
2023/04/03 21:49:25;;;;;;;;;;;;;;;2.49;80.75;102919.53;10337729;28;19981;-68
2023/04/03 21:54:28;;;;;;;;;;;;;;;2.64;80.58;102930.06;10323561;28;19926;-68
2023/04/03 21:59:30;;;;;;;;;;;;;;;2.33;81.79;102936.59;10298361;28;20484;-68
2023/04/03 22:04:32;;;;;;;;;;;;;;;2.17;82.83;102948.47;10337053;28;19972;-68
2023/04/03 22:09:35;;;;;;;;;;;;;;;1.84;83.32;102931.72;10337477;28;19926;-68
2023/04/03 22:14:38;;;;;;;;;;;;;;;2.04;84.65;102939.72;10336736;28;19976;-68
2023/04/03 22:19:40;;;;;;;;;;;;;;;1.93;84.67;102938.69;10321986;28;19926;-68
2023/04/03 22:24:43;;;;;;;;;;;;;;;1.86;84.62;102940.34;10312520;28;19930;-68
2023/04/03 22:29:45;;;;;;;;;;;;;;;1.84;84.89;102934.28;10336150;28;20436;-68
2023/04/03 22:34:47;;;;;;;;;;;;;;;1.81;83.83;102926.50;10336449;28;20365;-68
2023/04/03 22:39:50;;;;;;;;;;;;;;;1.66;84.16;102927.16;10317143;28;19930;-68
2023/04/03 22:44:52;;;;;;;;;;;;;;;1.60;84.69;102919.34;10335447;28;19930;-68
2023/04/03 22:49:54;;;;;;;;;;;;;;;1.69;85.18;102923.75;10335912;28;20320;-68
2023/04/03 22:54:56;;;;;;;;;;;;;;;1.42;86.05;102918.22;10333874;28;19926;-68
2023/04/03 23:00:02;;;;;;;;;;;;;;;1.41;86.28;102921.66;10333673;28;19972;-68
2023/04/03 23:05:05;;;;;;;;;;;;;;;1.40;87.18;102917.31;10335504;28;19926;-68
2023/04/03 23:10:07;;;;;;;;;;;;;;;1.43;87.17;102907.06;10335384;28;19930;-68
2023/04/03 23:15:10;;;;;;;;;;;;;;;1.34;87.25;102913.78;10334333;28;19926;-68
2023/04/03 23:20:12;;;;;;;;;;;;;;;1.22;87.56;102917.91;10333322;28;19930;-68
2023/04/03 23:25:14;;;;;;;;;;;;;;;1.42;86.92;102918.22;10334019;28;19929;-68
2023/04/03 23:30:17;;;;;;;;;;;;;;;1.34;87.25;102919.81;10333700;28;19929;-69
2023/04/03 23:35:19;;;;;;;;;;;;;;;1.31;86.89;102927.50;10317450;28;19929;-68
2023/04/03 23:40:21;;;;;;;;;;;;;;;1.08;88.53;102925.44;10333127;28;19932;-68
2023/04/03 23:45:23;;;;;;;;;;;;;;;1.24;88.76;102923.94;10334058;28;19926;-68
2023/04/03 23:50:26;;;;;;;;;;;;;;;1.07;89.16;102921.09;10333220;28;20321;-68
2023/04/03 23:55:28;;;;;;;;;;;;;;;1.24;88.19;102931.69;10333305;28;19972;-68
